Flight Track Log - Related Links

Times and Time Zones

All times are in EDT time to prevent confusion due to time zone crossing. See the JIA2328 flight status page for this flight to view local times or setup timezone preferences in your user account.

Time Position Orientation Groundspeed Altitude Reporting Facility
EDT Latitude Longitude Course Direction KTS MPH feet Rate Location/Type
Tue 06:00:43 PM 35.1844 -80.9358 106° East 170 196 1,800  Level Atlanta Center
Tue 06:01:26 PM 35.1592 -80.9167 148° Southeast 180 207 3,100 1,981 Climbing Atlanta Center
Tue 06:02:26 PM 35.1425 -80.8411 105° East 247 284 5,200 2,104 Climbing Atlanta Center
Tue 06:02:43 PM 35.1331 -80.8033 107° East 262 302 5,800 2,656 Climbing Atlanta Center
Tue 06:03:00 PM 35.0921 -80.7210 82° East  Level FlightAware Approximate
Tue 06:03:27 PM 35.1236 -80.7553 103° East 275 316 7,900  Level Atlanta Center
Tue 06:03:43 PM 35.1122 -80.7203 112° Southeast 262 302 8,200 1,897 Climbing Atlanta Center
Tue 06:04:00 PM 35.0970 -80.6228 109° East  Level FlightAware Approximate
Tue 06:05:00 PM 35.0667 -80.5048 90° East  Level FlightAware Approximate
Tue 06:06:00 PM 35.0395 -80.3852 106° East  Level FlightAware Approximate
Tue 06:06:02 PM 35.0642 -80.4994 105° East 324 373 12,800  Level Washington Center
Tue 06:07:03 PM 35.0375 -80.3839 106° East 341 392 14,700 1,765 Climbing Washington Center
Tue 06:08:01 PM 35.0131 -80.2658 104° East 353 406 16,300 1,513 Climbing Washington Center
Tue 06:09:02 PM 34.9881 -80.1553 105° East 367 422 17,700 1,289 Climbing Washington Center
Tue 06:10:02 PM 34.9550 -80.0369 109° East 372 428 18,900 645 Climbing Washington Center
Tue 06:11:03 PM 34.9372 -79.8939 99° East 372 428 19,000 50 Climbing Washington Center
Tue 06:12:01 PM 34.9353 -79.7747 91° East 367 422 19,000  Level Washington Center
Tue 06:13:02 PM 34.9311 -79.6556 92° East 362 417 19,000  Level Washington Center
Tue 06:14:03 PM 34.9247 -79.5361 94° East 357 411 19,000  Level Washington Center
Tue 06:15:03 PM 34.9200 -79.4194 93° East 350 403 19,000  Level Washington Center
Tue 06:16:01 PM 34.9133 -79.3050 94° East 350 403 19,000  Level Washington Center
Tue 06:17:01 PM 34.9106 -79.1883 92° East 350 403 19,000  Level Washington Center
Tue 06:18:02 PM 34.9033 -79.0817 95° East 350 403 19,000 -541 Level Washington Center
Tue 06:19:03 PM 34.9006 -78.9653 92° East 350 403 17,900 -1,311 Descending Washington Center
Tue 06:20:01 PM 34.8956 -78.8433 93° East 335 386 16,400 -1,412 Descending Washington Center
Tue 06:21:02 PM 34.8897 -78.7444 94° East 330 380 15,100 -1,339 Descending Washington Center
Tue 06:22:02 PM 34.8822 -78.6378 95° East 330 380 13,700 -1,339 Descending Washington Center
Tue 06:23:03 PM 34.8786 -78.5314 92° East 324 373 12,400 -1,109 Descending Washington Center
Tue 06:24:01 PM 34.8728 -78.4272 94° East 318 366 11,500 -908 Descending Washington Center
Tue 06:25:02 PM 34.8689 -78.3233 93° East 312 359 10,600 -1,377 Descending Washington Center
Tue 06:26:03 PM 34.8628 -78.2269 94° East 302 348 8,700 -1,866 Descending Washington Center
Tue 06:27:01 PM 34.8583 -78.1333 93° East 286 329 6,900 -1,815 Descending Washington Center
Tue 06:28:02 PM 34.8539 -78.0444 93° East 276 318 5,100 -1,835 Descending Washington Center
Tue 06:29:02 PM 34.8494 -77.9583 94° East 265 305 3,200 -1,059 Descending Washington Center
Tue 06:30:01 PM 34.8428 -77.8722 95° East 260 299 3,000 -605 Descending Washington Center
Tue 06:31:01 PM 34.8403 -77.7886 92° East 254 292 2,000 -1,000 Descending Washington Center

Login

Don't have an account? Register now (free) for customized features, flight alerts, and more!